الصفحة الرئيسية
METAR-TAF:

METAR-TAF

مطار :

مطار بشار - بودغن بن علي لطفي

بشار, الجزائر

دائرة عرض: 31-37N, خط طول: 002-14W, ارتفاع: 773 متر

مراقبة الطقس الحالي

تاريخ ووقت الإصدار 52 دقيقة قبل الساعة 12:00UTC
ريح 13 عقدة من الجنوب/الجنوب الغربي
درجة الحرارة 15°درجة مئوية
الرطوبة 27%
ضغط 1017 hPa
الرؤية 10 كم أو أكثر
الغيوم لا تقل 1500 م ولا وجود لمزنة ركامية السحاب الأسود

METAR: DAOR 201200Z 20013KT CAVOK 15/M04 Q1017

زمن: 13:52 (12:52 UTC)

توقعات

تاريخ ووقت الإصدار 1ساعة و 52 دقيقة قبل الساعة 11:00UTC
التوقعات صالحة من20 الساعة 12 UTC إلى 20 الساعة 21 UTC
ريح 10 عقدة من الجنوب/الجنوب الغربي
الرؤية 10 كم أو أكثر
الغيوم لا تقل 1500 م ولا وجود لمزنة ركامية السحاب الأسود
أصبح
من 20 الساعة 16 UTC إلى 20 الساعة 18 UTC
ريح 2 عقدةمن اتجاهات متغيرة

TAF: DAOR 201100Z 2012/2021 20010KT CAVOK BECMG 2016/2018 VRB02KT

أرصاد الطقس والتوقعات من أكثر من 4000 مطار (تقارير الطقس للمطار METAR والتنبؤ بالطقس بالمطارTAF).

المحطات المتاحة هي النقط الصفراء والحمراء على الخريطة.

حرك المؤشر فوق النقطة لمعرفة اسم المحطة.

ثم انقر لمعرفة أرصاد وتوقعات الطقس.

لتغيير الخارطة: اضغط على الأزرار الخضراء مع رمز الصليب الأسود للتكبير. على الزر الأخضر مع شرطة للتصغير، أو على الأسهم الخضراء للخرائط المجاورة.


METAR-TAF: